createdAt,value
2023-05-04T13:49:55.662Z,101061.77
2023-05-04T13:52:24.847Z,101052.64
2023-05-04T13:54:53.105Z,101047.64
2023-05-04T13:57:20.332Z,101047.83
2023-05-04T14:00:02.466Z,101049.98
2023-05-04T14:02:33.503Z,101046.20
2023-05-04T14:05:03.710Z,101042.98
2023-05-04T14:07:31.107Z,101038.66
2023-05-04T14:09:58.914Z,101030.75
2023-05-04T14:12:27.061Z,101029.13
2023-05-04T14:14:54.164Z,101025.14
2023-05-04T14:17:21.151Z,101019.90
2023-05-04T14:19:48.729Z,101017.52
2023-05-04T14:22:15.845Z,101017.91
2023-05-04T14:24:42.864Z,101022.55
2023-05-04T14:27:09.849Z,101023.44
2023-05-04T14:29:36.989Z,101021.65
2023-05-04T14:32:03.992Z,101018.26
2023-05-04T14:34:32.269Z,101015.20
2023-05-04T14:36:59.346Z,101012.97
2023-05-04T14:39:26.307Z,101011.31
2023-05-04T14:41:53.547Z,101011.22
2023-05-04T14:44:22.169Z,101011.61
2023-05-04T14:46:49.301Z,101013.09
2023-05-04T14:49:24.946Z,101009.92
2023-05-04T14:52:02.342Z,101004.93
2023-05-04T14:54:29.235Z,101003.14
2023-05-04T14:56:56.205Z,100997.30
2023-05-04T14:59:23.617Z,100995.36
2023-05-04T15:01:51.711Z,100992.45
2023-05-04T15:04:18.699Z,101000.37
2023-05-04T15:06:46.381Z,101004.63
2023-05-04T15:09:13.361Z,101008.67
2023-05-04T15:11:40.768Z,100999.30
2023-05-04T15:14:07.979Z,100998.38
2023-05-04T15:16:35.171Z,100995.89
2023-05-04T15:19:02.415Z,100991.69
2023-05-04T15:21:29.329Z,100991.27
2023-05-04T15:23:56.274Z,100987.16
2023-05-04T15:26:23.628Z,100987.68
2023-05-04T15:28:52.642Z,100988.19
2023-05-04T15:31:22.257Z,100983.80
2023-05-04T15:33:50.210Z,100975.77
2023-05-04T15:36:17.551Z,100973.15
2023-05-04T15:38:44.914Z,100969.66
2023-05-04T15:41:13.694Z,100964.98
2023-05-04T15:43:41.061Z,100963.29
2023-05-04T15:46:08.055Z,100961.50
2023-05-04T15:48:35.227Z,100961.79
2023-05-04T15:51:02.330Z,100958.46
2023-05-04T15:53:29.420Z,100958.02
2023-05-04T15:55:56.459Z,100954.44
2023-05-04T15:58:23.431Z,100946.55
2023-05-04T16:00:54.495Z,100947.86
2023-05-04T16:03:23.257Z,100946.02
2023-05-04T16:05:51.410Z,100946.01
2023-05-04T16:08:19.392Z,100951.67
2023-05-04T16:10:47.120Z,100951.67
2023-05-04T16:13:16.771Z,100949.85
2023-05-04T16:15:44.842Z,100949.29
2023-05-04T16:18:12.158Z,100952.68
2023-05-04T16:20:39.299Z,100950.89
2023-05-04T16:23:06.490Z,100951.30
2023-05-04T16:25:33.979Z,100950.58
2023-05-04T16:28:01.212Z,100947.27
2023-05-04T16:30:33.618Z,100945.96
2023-05-04T16:33:05.164Z,100942.77
2023-05-04T16:35:36.898Z,100941.00
2023-05-04T16:38:04.811Z,100941.70
2023-05-04T16:40:33.791Z,100941.96
2023-05-04T16:43:07.560Z,100937.90
2023-05-04T16:45:35.229Z,100939.73
2023-05-04T16:48:03.219Z,100938.82
2023-05-04T16:50:32.146Z,100937.95
2023-05-04T16:53:01.138Z,100936.83
2023-05-04T16:55:31.365Z,100935.00
2023-05-04T16:58:00.380Z,100933.20
2023-05-04T17:00:28.933Z,100933.88
2023-05-04T17:02:56.522Z,100935.80
2023-05-04T17:05:24.005Z,100934.33
2023-05-04T17:07:54.249Z,100936.95
2023-05-04T17:10:25.382Z,100936.07
2023-05-04T17:12:59.714Z,100936.23
2023-05-04T17:15:32.525Z,100933.58
2023-05-04T17:18:02.891Z,100937.36
2023-05-04T17:20:31.671Z,100934.50
2023-05-04T17:23:00.747Z,100934.51
2023-05-04T17:25:28.383Z,100937.13
2023-05-04T17:27:55.955Z,100937.46
2023-05-04T17:30:24.345Z,100939.81
2023-05-04T17:32:56.550Z,100939.12
2023-05-04T17:35:26.470Z,100934.48
2023-05-04T17:37:58.445Z,100932.70
2023-05-04T17:44:39.170Z,100941.27
2023-05-04T17:47:06.370Z,100941.25
2023-05-04T17:49:34.063Z,100938.92
2023-05-04T17:52:01.133Z,100938.70
2023-05-04T17:54:28.367Z,100942.70
2023-05-04T17:56:55.678Z,100946.91
2023-05-04T17:59:22.836Z,100952.85
2023-05-04T18:01:52.959Z,100954.11
2023-05-04T18:04:20.199Z,100955.83
2023-05-04T18:06:56.540Z,100961.06
2023-05-04T18:09:23.626Z,100955.04
2023-05-04T18:11:51.434Z,100959.90
2023-05-04T18:14:18.685Z,100963.09
2023-05-04T18:16:45.801Z,100966.80
2023-05-04T18:19:12.784Z,100965.34
2023-05-04T18:21:42.364Z,100967.96
2023-05-04T18:24:09.565Z,100969.77
2023-05-04T18:34:02.603Z,100983.45
2023-05-04T18:36:36.739Z,100988.50
2023-05-04T18:39:05.118Z,100990.19
2023-05-04T18:41:37.303Z,100993.44
2023-05-04T18:44:07.121Z,100995.85
2023-05-04T18:46:38.144Z,101003.02
2023-05-04T18:49:06.585Z,101007.73
2023-05-04T18:51:35.573Z,101011.33
2023-05-04T18:54:02.908Z,101010.02
2023-05-04T18:56:33.290Z,101014.05
2023-05-04T18:59:18.252Z,101016.67
2023-05-04T19:01:53.530Z,101020.63
2023-05-04T19:04:24.571Z,101016.83
2023-05-04T19:06:53.221Z,101013.46
2023-05-04T19:09:26.549Z,101006.17
2023-05-04T19:12:00.008Z,101007.55
2023-05-04T19:14:41.256Z,101008.09
2023-05-04T19:17:11.676Z,101001.71
2023-05-04T19:19:39.781Z,101006.33
2023-05-04T19:22:14.306Z,101010.41
2023-05-04T19:24:43.181Z,101009.41
2023-05-04T19:27:10.263Z,101009.69
2023-05-04T19:29:38.305Z,101010.87
2023-05-04T19:32:19.740Z,101011.19
2023-05-04T19:34:53.339Z,101010.91
2023-05-04T19:37:20.754Z,101011.54
2023-05-04T19:39:51.549Z,101019.05
2023-05-04T19:42:19.571Z,101017.52
2023-05-04T19:44:47.436Z,101016.49
2023-05-04T19:47:14.779Z,101018.92
2023-05-04T19:53:56.081Z,101020.13
2023-05-04T19:56:23.778Z,101018.92
2023-05-04T19:58:52.526Z,101024.30
2023-05-04T20:01:25.941Z,101025.08
2023-05-04T20:03:55.142Z,101022.19
2023-05-04T20:06:22.621Z,101023.75
2023-05-04T20:08:50.050Z,101018.73
2023-05-04T20:11:17.230Z,101021.43
2023-05-04T20:13:44.279Z,101018.73
2023-05-04T20:16:13.945Z,101016.48
2023-05-04T20:18:54.413Z,101011.21
2023-05-04T20:21:32.066Z,101010.61
2023-05-04T20:24:00.272Z,101011.73
2023-05-04T20:26:28.044Z,101014.38
2023-05-04T20:28:56.175Z,101013.81
2023-05-04T20:31:24.643Z,101013.04
2023-05-04T20:33:52.262Z,101016.84
2023-05-04T20:36:19.633Z,101016.02
2023-05-04T20:38:47.028Z,101016.61
2023-05-04T20:41:17.660Z,101015.36
2023-05-04T20:43:45.468Z,101020.23
2023-05-04T20:46:13.930Z,101021.38
2023-05-04T20:48:41.867Z,101027.48
2023-05-04T20:51:14.542Z,101023.73
2023-05-04T20:53:44.001Z,101019.65
2023-05-04T20:56:12.511Z,101017.16
2023-05-04T20:58:40.447Z,101021.80
2023-05-04T21:01:11.525Z,101018.34
2023-05-04T21:03:39.048Z,101015.14
2023-05-04T21:06:07.058Z,101015.08
2023-05-04T21:08:35.023Z,101013.90
2023-05-04T21:11:03.106Z,101018.18
2023-05-04T21:13:31.294Z,101021.05
2023-05-04T21:16:01.677Z,101016.99
2023-05-04T21:18:30.063Z,101014.69
2023-05-04T21:20:58.174Z,101016.17
2023-05-04T21:23:26.229Z,101016.00
2023-05-04T21:26:02.167Z,101016.21
2023-05-04T21:28:29.991Z,101013.52
2023-05-04T21:30:57.631Z,101011.57
2023-05-04T21:33:25.129Z,101012.80
2023-05-04T21:35:52.396Z,101013.42
2023-05-04T21:38:21.969Z,101013.68
2023-05-04T21:40:50.247Z,101011.55
2023-05-04T21:43:17.443Z,101010.78
2023-05-04T21:45:44.780Z,101007.16
2023-05-04T21:48:13.347Z,101005.65
2023-05-04T21:50:42.905Z,101008.35
2023-05-04T21:53:12.770Z,101005.05
2023-05-04T21:55:42.981Z,101003.89
2023-05-04T21:58:13.115Z,101004.17
2023-05-04T22:00:54.542Z,101001.40
2023-05-04T22:03:28.185Z,101003.73
2023-05-04T22:06:01.145Z,101002.44
2023-05-04T22:08:29.918Z,100999.04
2023-05-04T22:11:00.153Z,101000.15
2023-05-04T22:13:30.038Z,101002.67
2023-05-04T22:16:02.870Z,101000.84
2023-05-04T22:22:57.034Z,101005.02
2023-05-04T22:25:26.088Z,101006.89
2023-05-04T22:27:55.983Z,101001.39
2023-05-04T22:30:29.104Z,101000.69
2023-05-04T22:32:58.820Z,100996.52
2023-05-04T22:35:29.130Z,100998.26
2023-05-04T22:37:58.877Z,100995.93
2023-05-04T22:40:28.056Z,100997.34
2023-05-04T22:42:58.389Z,100994.63
2023-05-04T22:45:29.299Z,100989.39
2023-05-04T22:53:55.189Z,100984.86
2023-05-04T22:56:23.503Z,100986.55
2023-05-04T22:58:51.813Z,100989.84
2023-05-04T23:01:20.184Z,100987.98
2023-05-04T23:03:49.102Z,100989.23
2023-05-04T23:06:17.530Z,100987.09
2023-05-04T23:08:46.063Z,100987.27
2023-05-04T23:11:14.492Z,100987.09
2023-05-04T23:13:42.809Z,100992.91
2023-05-04T23:16:11.166Z,100990.75
2023-05-04T23:18:39.505Z,100994.05
2023-05-04T23:21:07.747Z,100991.34
2023-05-04T23:23:36.239Z,100989.16
2023-05-04T23:26:04.922Z,100986.58
2023-05-04T23:28:33.298Z,100984.45
2023-05-04T23:31:02.752Z,100977.78
2023-05-04T23:33:31.186Z,100979.42
2023-05-04T23:35:59.639Z,100981.73
2023-05-04T23:38:28.378Z,100983.04
2023-05-04T23:40:57.263Z,100983.13
2023-05-04T23:43:25.578Z,100983.58
2023-05-04T23:46:00.587Z,100981.98
2023-05-04T23:48:29.773Z,100987.23
2023-05-04T23:50:59.187Z,100987.30
2023-05-04T23:53:27.990Z,100985.46
2023-05-04T23:55:58.157Z,100985.04
2023-05-04T23:58:27.450Z,100980.89
